Billy Bishop Toronto City Centre Airport
CYTZ : now visible

Airfield :











YOU CAN JOIN US ON...

 
LOGIN :

Register | Disclaimer

   EN    FR    IT 

 









Legend :    VFR   Marginal VFR   IFR   Intensive IFR   Very Intensive IFR
Visi :
Ceiling :
>= 8 km
>= 3000ft
5 to 8 km
1000 to 3000 ft
1500m to 5 km
500 to 1000 ft
800 to 1500m
200 to 500 ft
< 800m
< 200 ft
Symbols :   Thunderstorms  Fog  Heavy snow  Heavy precipitations  Wind > 20 kt






- Airport Elevation : 251 ft
- IATA code : YTZ


CYTZ - Billy Bishop Toronto City Centre

CURRENT METAR :
  • 091400Z AUTO 07006KT 9SM CLR 26/23 A2993 RMK SLP136 DENSITY ALT 1500FT

EXPIRED METARs :
  • 091300Z AUTO 09005KT 9SM CLR 25/21 A2993 RMK SLP135 DENSITY ALT 1500FT
  • 091200Z AUTO 23002KT 9SM CLR 25/21 A2993 RMK SLP137 DENSITY ALT 1300FT

TAF TAF CYTZ
Valid from the 09 at 14:00 until the 10 at 14:00 UTC


091338Z 0914/1014 09006KT P6SM SKC
BECMG 0914/0916 13008KT
FM091800 15008KT P6SM SCT060
BECMG 0923/0924 06008KT
FM101200 14008KT P6SM BKN120 RMK FCST BASED ON AUTO OBS. NXT FCST BY 092000Z
CZYZ FIR / North America



MET'MAP, your aeronautical weather chart ! - Copyright ORBIFLY December 2007 - Disclaimer

ORBIFLY MET'MAP TEAM :

Programming & Development : Alexandra Zaïnal
Concept & original design : Baudouin d'Aumeries
Assistance for programming : Marc-Olivier Méhu
Technical & hardware support : Manuel Goepfert

Contact : metmap@orbifly.com




SOURCES & CREDITS :

   NOAA       Earth
Advisory